createdAt,value
2019-02-22T00:01:12.883Z,101534.00
2019-02-22T00:03:45.760Z,101534.00
2019-02-22T00:06:18.543Z,101536.00
2019-02-22T00:08:51.399Z,101538.00
2019-02-22T00:11:24.242Z,101542.00
2019-02-22T00:13:57.090Z,101532.00
2019-02-22T00:16:32.320Z,101527.00
2019-02-22T00:19:04.697Z,101542.00
2019-02-22T00:21:37.558Z,101535.00
2019-02-22T00:24:10.407Z,101543.00
2019-02-22T00:26:43.207Z,101552.00
2019-02-22T00:29:16.100Z,101554.00
2019-02-22T00:31:48.921Z,101556.00
2019-02-22T00:34:21.755Z,101557.00
2019-02-22T00:36:54.652Z,101559.00
2019-02-22T00:39:27.450Z,101554.00
2019-02-22T00:42:00.604Z,101562.00
2019-02-22T00:44:33.562Z,101567.00
2019-02-22T00:47:06.435Z,101562.00
2019-02-22T00:49:39.260Z,101559.00
2019-02-22T00:52:12.115Z,101563.00
2019-02-22T00:54:44.961Z,101548.00
2019-02-22T00:57:17.816Z,101566.00
2019-02-22T00:59:50.614Z,101575.00
2019-02-22T01:02:25.512Z,101563.00
2019-02-22T01:04:58.317Z,101580.00
2019-02-22T01:07:31.175Z,101574.00
2019-02-22T01:10:04.156Z,101571.00
2019-02-22T01:12:37.120Z,101571.00
2019-02-22T01:15:09.961Z,101576.00
2019-02-22T01:17:42.793Z,101573.00
2019-02-22T01:20:15.615Z,101577.00
2019-02-22T01:22:48.493Z,101581.00
2019-02-22T01:25:21.308Z,101580.00
2019-02-22T01:27:54.198Z,101587.00
2019-02-22T01:30:26.998Z,101591.00
2019-02-22T01:32:59.850Z,101589.00
2019-02-22T01:35:32.688Z,101597.00
2019-02-22T01:38:05.657Z,101590.00
2019-02-22T01:40:43.594Z,101590.00
2019-02-22T01:43:13.236Z,101595.00
2019-02-22T01:45:46.036Z,101597.00
2019-02-22T01:48:18.905Z,101600.00
2019-02-22T01:50:51.696Z,101596.00
2019-02-22T01:53:24.579Z,101600.00
2019-02-22T01:55:57.401Z,101591.00
2019-02-22T01:58:30.216Z,101598.00
2019-02-22T02:01:03.537Z,101597.00
2019-02-22T02:03:36.415Z,101597.00
2019-02-22T02:06:09.231Z,101596.00
2019-02-22T02:08:42.075Z,101606.00
2019-02-22T02:11:14.919Z,101604.00
2019-02-22T02:13:47.804Z,101607.00
2019-02-22T02:16:20.625Z,101612.00
2019-02-22T02:18:54.601Z,101602.00
2019-02-22T02:21:27.394Z,101624.00
2019-02-22T02:24:00.367Z,101627.00
2019-02-22T02:26:33.145Z,101620.00
2019-02-22T02:29:06.173Z,101626.00
2019-02-22T02:31:39.013Z,101612.00
2019-02-22T02:34:11.824Z,101622.00
2019-02-22T02:36:44.649Z,101616.00
2019-02-22T02:39:17.508Z,101626.00
2019-02-22T02:41:50.351Z,101631.00
2019-02-22T02:44:23.180Z,101621.00
2019-02-22T02:46:56.012Z,101626.00
2019-02-22T02:49:28.849Z,101634.00
2019-02-22T02:52:01.706Z,101636.00
2019-02-22T02:54:34.565Z,101636.00
2019-02-22T02:57:07.399Z,101646.00
2019-02-22T02:59:40.254Z,101647.00
2019-02-22T03:02:19.175Z,101650.00
2019-02-22T03:04:52.011Z,101650.00
2019-02-22T03:07:44.596Z,101651.00
2019-02-22T03:10:18.541Z,101643.00
2019-02-22T03:12:51.343Z,101652.00
2019-02-22T03:15:24.173Z,101648.00
2019-02-22T03:17:57.019Z,101662.00
2019-02-22T03:20:29.879Z,101654.00
2019-02-22T03:23:02.706Z,101668.00
2019-02-22T03:25:35.616Z,101670.00
2019-02-22T03:28:08.564Z,101666.00
2019-02-22T03:30:41.402Z,101668.00
2019-02-22T03:33:14.237Z,101670.00
2019-02-22T03:35:47.100Z,101673.00
2019-02-22T03:38:19.914Z,101680.00
2019-02-22T03:40:53.753Z,101664.00
2019-02-22T03:43:26.617Z,101668.00
2019-02-22T03:45:59.423Z,101674.00
2019-02-22T03:48:32.262Z,101671.00
2019-02-22T03:51:06.116Z,101685.00
2019-02-22T03:53:45.875Z,101688.00
2019-02-22T03:56:18.698Z,101687.00
2019-02-22T03:58:51.544Z,101690.00
2019-02-22T04:01:24.361Z,101692.00
2019-02-22T04:03:57.194Z,101687.00
2019-02-22T04:06:30.024Z,101691.00
2019-02-22T04:09:09.669Z,101687.00
2019-02-22T04:11:45.999Z,101691.00
2019-02-22T04:14:18.251Z,101695.00
2019-02-22T04:16:51.064Z,101688.00
2019-02-22T04:19:23.907Z,101705.00
2019-02-22T04:21:56.748Z,101711.00
2019-02-22T04:24:29.574Z,101697.00
2019-02-22T04:27:02.398Z,101703.00
2019-02-22T04:29:35.271Z,101698.00
2019-02-22T04:32:08.111Z,101705.00
2019-02-22T04:34:40.943Z,101711.00
2019-02-22T04:37:13.745Z,101698.00
2019-02-22T04:39:46.582Z,101703.00
2019-02-22T04:42:20.502Z,101710.00
2019-02-22T04:44:53.352Z,101712.00
2019-02-22T04:47:26.176Z,101709.00
2019-02-22T04:49:59.126Z,101705.00
2019-02-22T04:52:32.946Z,101695.00
2019-02-22T04:55:05.825Z,101695.00
2019-02-22T04:57:38.650Z,101696.00
2019-02-22T05:00:11.537Z,101698.00
2019-02-22T05:02:44.344Z,101714.00
2019-02-22T05:05:17.183Z,101700.00
2019-02-22T05:07:50.043Z,101710.00
2019-02-22T05:10:22.890Z,101717.00
2019-02-22T05:12:55.735Z,101713.00
2019-02-22T05:15:28.566Z,101709.00
2019-02-22T05:18:01.377Z,101719.00
2019-02-22T05:20:34.209Z,101722.00
2019-02-22T05:23:07.650Z,101732.00
2019-02-22T05:25:40.643Z,101722.00
2019-02-22T05:28:13.454Z,101736.00
2019-02-22T05:30:46.299Z,101739.00
2019-02-22T05:33:19.133Z,101748.00
2019-02-22T05:35:51.984Z,101750.00
2019-02-22T05:38:24.834Z,101748.00
2019-02-22T05:40:57.679Z,101755.00
2019-02-22T05:43:30.566Z,101764.00
2019-02-22T05:46:03.418Z,101768.00
2019-02-22T05:48:38.774Z,101764.00
2019-02-22T05:51:11.044Z,101770.00
2019-02-22T05:53:43.897Z,101781.00
2019-02-22T05:56:16.801Z,101772.00
2019-02-22T05:58:49.642Z,101779.00
2019-02-22T06:01:22.481Z,101769.00
2019-02-22T06:03:55.317Z,101777.00
2019-02-22T06:06:28.186Z,101779.00
2019-02-22T06:09:01.300Z,101783.00
2019-02-22T06:11:35.126Z,101778.00
2019-02-22T06:14:07.879Z,101774.00
2019-02-22T06:16:46.528Z,101779.00
2019-02-22T06:19:19.329Z,101779.00
2019-02-22T06:21:52.177Z,101777.00
2019-02-22T06:24:26.083Z,101773.00
2019-02-22T06:26:59.990Z,101784.00
2019-02-22T06:29:32.790Z,101780.00
2019-02-22T06:32:05.689Z,101812.00
2019-02-22T06:34:38.475Z,101817.00
2019-02-22T06:37:11.346Z,101828.00
2019-02-22T06:39:44.129Z,101813.00
2019-02-22T06:42:16.954Z,101826.00
2019-02-22T06:44:49.750Z,101836.00
2019-02-22T06:47:22.946Z,101823.00
2019-02-22T06:49:55.812Z,101823.00
2019-02-22T06:52:29.742Z,101829.00
2019-02-22T06:55:02.804Z,101821.00
2019-02-22T06:57:35.620Z,101833.00
2019-02-22T07:00:09.746Z,101828.00
2019-02-22T07:02:42.573Z,101826.00
2019-02-22T07:05:15.405Z,101823.00
2019-02-22T07:07:48.267Z,101817.00
2019-02-22T07:10:23.530Z,101821.00
2019-02-22T07:13:03.038Z,101831.00
2019-02-22T07:15:35.855Z,101837.00
2019-02-22T07:18:08.681Z,101843.00
2019-02-22T07:20:41.496Z,101836.00
2019-02-22T07:23:14.356Z,101860.00
2019-02-22T07:25:47.181Z,101856.00
2019-02-22T07:28:20.017Z,101854.00
2019-02-22T07:30:52.867Z,101875.00
2019-02-22T07:33:25.712Z,101885.00
2019-02-22T07:35:58.555Z,101889.00
2019-02-22T07:38:31.421Z,101892.00
2019-02-22T07:41:04.231Z,101884.00
2019-02-22T07:43:37.056Z,101881.00
2019-02-22T07:46:09.906Z,101870.00
2019-02-22T07:48:42.790Z,101877.00
2019-02-22T07:51:15.624Z,101885.00
2019-02-22T07:53:48.531Z,101896.00
2019-02-22T07:56:21.384Z,101903.00
2019-02-22T07:58:54.203Z,101901.00
2019-02-22T08:01:27.152Z,101910.00
2019-02-22T08:04:00.038Z,101910.00
2019-02-22T08:06:33.086Z,101920.00
2019-02-22T08:09:06.024Z,101923.00
2019-02-22T08:11:38.999Z,101921.00
2019-02-22T08:14:11.820Z,101925.00
2019-02-22T08:16:44.650Z,101922.00
2019-02-22T08:19:17.566Z,101926.00
2019-02-22T08:21:50.378Z,101933.00
2019-02-22T08:24:25.803Z,101932.00
2019-02-22T08:26:58.018Z,101937.00
2019-02-22T08:29:30.811Z,101938.00
2019-02-22T08:32:03.848Z,101945.00
2019-02-22T08:34:36.685Z,101944.00
2019-02-22T08:37:09.505Z,101947.00
2019-02-22T08:39:42.356Z,101953.00
2019-02-22T08:42:15.196Z,101957.00
2019-02-22T08:44:48.001Z,101948.00
2019-02-22T08:47:20.855Z,101955.00
2019-02-22T08:49:53.666Z,101965.00
2019-02-22T08:52:26.509Z,101959.00
2019-02-22T08:54:59.319Z,101970.00
2019-02-22T08:57:32.185Z,101958.00
2019-02-22T09:00:07.446Z,101969.00
2019-02-22T09:02:40.599Z,101967.00
2019-02-22T09:05:13.914Z,101965.00
2019-02-22T09:07:47.097Z,101968.00
2019-02-22T09:10:20.101Z,101970.00
2019-02-22T09:12:52.961Z,101978.00
2019-02-22T09:15:25.836Z,101979.00
2019-02-22T09:17:58.671Z,101977.00
2019-02-22T09:20:31.508Z,101978.00
2019-02-22T09:23:04.320Z,101975.00
2019-02-22T09:25:37.216Z,101981.00
2019-02-22T09:28:10.032Z,101992.00
2019-02-22T09:30:42.888Z,101997.00
2019-02-22T09:33:15.834Z,101989.00
2019-02-22T09:35:48.656Z,102005.00
2019-02-22T09:38:21.485Z,102005.00
2019-02-22T09:40:54.307Z,102017.00
2019-02-22T09:43:27.149Z,102004.00
2019-02-22T09:45:59.982Z,101997.00
2019-02-22T09:48:33.425Z,102001.00
2019-02-22T09:51:06.214Z,102004.00
2019-02-22T09:53:39.091Z,102013.00
2019-02-22T09:56:11.895Z,102011.00
2019-02-22T09:58:44.971Z,102017.00
2019-02-22T10:01:17.782Z,102004.00
2019-02-22T10:03:50.648Z,102013.00
2019-02-22T10:06:23.490Z,102013.00
2019-02-22T10:08:56.459Z,102027.00
2019-02-22T10:11:29.303Z,102019.00
2019-02-22T10:14:06.755Z,102017.00
2019-02-22T10:16:36.908Z,102000.00
2019-02-22T10:19:09.774Z,102011.00
2019-02-22T10:21:42.622Z,102004.00
2019-02-22T10:24:15.460Z,102006.00
2019-02-22T10:26:48.338Z,102002.00
2019-02-22T10:29:21.188Z,102014.00
2019-02-22T10:31:54.034Z,102014.00
2019-02-22T10:34:26.891Z,102027.00
2019-02-22T10:36:59.746Z,102035.00
2019-02-22T10:39:32.618Z,102026.00
2019-02-22T10:42:05.471Z,102026.00
2019-02-22T10:44:38.354Z,102035.00
2019-02-22T10:47:11.219Z,102033.00
2019-02-22T10:49:44.110Z,102041.00
2019-02-22T10:52:18.055Z,102046.00
2019-02-22T10:54:51.038Z,102054.00
2019-02-22T10:57:23.910Z,102055.00
2019-02-22T10:59:56.756Z,102053.00
2019-02-22T11:02:31.401Z,102056.00
2019-02-22T11:05:04.450Z,102067.00
2019-02-22T11:07:37.545Z,102066.00
2019-02-22T11:10:10.917Z,102066.00
2019-02-22T11:12:44.890Z,102053.00
2019-02-22T11:15:17.816Z,102054.00
2019-02-22T11:17:50.622Z,102067.00
2019-02-22T11:20:24.609Z,102061.00
2019-02-22T11:22:57.594Z,102054.00
2019-02-22T11:25:33.000Z,102062.00
2019-02-22T11:28:05.953Z,102061.00
2019-02-22T11:30:38.803Z,102063.00
2019-02-22T11:33:11.613Z,102062.00
2019-02-22T11:35:44.501Z,102067.00
2019-02-22T11:38:17.408Z,102067.00
2019-02-22T11:40:50.294Z,102070.00
2019-02-22T11:43:23.331Z,102074.00
2019-02-22T11:45:56.205Z,102070.00
2019-02-22T11:48:29.194Z,102070.00
2019-02-22T11:51:02.063Z,102074.00
2019-02-22T11:53:34.945Z,102068.00
2019-02-22T11:56:07.782Z,102077.00
2019-02-22T11:58:40.643Z,102069.00
2019-02-22T12:01:13.764Z,102086.00
2019-02-22T12:03:46.596Z,102086.00
2019-02-22T12:06:19.432Z,102089.00
2019-02-22T12:08:52.424Z,102085.00
2019-02-22T12:11:26.422Z,102079.00
2019-02-22T12:13:59.271Z,102088.00
2019-02-22T12:16:32.088Z,102080.00
2019-02-22T12:19:04.915Z,102086.00
2019-02-22T12:21:38.784Z,102093.00
2019-02-22T12:24:11.647Z,102099.00
2019-02-22T12:26:44.483Z,102095.00
2019-02-22T12:29:17.358Z,102109.00
2019-02-22T12:31:50.169Z,102106.00
2019-02-22T12:34:23.069Z,102119.00
2019-02-22T12:36:55.982Z,102117.00
2019-02-22T12:39:28.826Z,102113.00
2019-02-22T12:42:01.730Z,102119.00
2019-02-22T12:44:34.715Z,102125.00
2019-02-22T12:47:07.569Z,102126.00
2019-02-22T12:49:40.491Z,102119.00
2019-02-22T12:52:13.325Z,102132.00
2019-02-22T12:54:46.231Z,102126.00
2019-02-22T12:57:19.081Z,102130.00
2019-02-22T12:59:51.942Z,102132.00
2019-02-22T13:02:24.845Z,102142.00
2019-02-22T13:04:57.719Z,102122.00
2019-02-22T13:07:30.578Z,102138.00
2019-02-22T13:10:03.944Z,102127.00
2019-02-22T13:12:36.910Z,102132.00
2019-02-22T13:15:13.971Z,102144.00
2019-02-22T13:17:45.642Z,102146.00
2019-02-22T13:20:18.552Z,102147.00
2019-02-22T13:22:51.456Z,102153.00
2019-02-22T13:25:24.315Z,102142.00
2019-02-22T13:27:57.249Z,102150.00
2019-02-22T13:30:30.048Z,102142.00
2019-02-22T13:33:02.934Z,102158.00
2019-02-22T13:35:35.896Z,102148.00
2019-02-22T13:38:08.781Z,102151.00
2019-02-22T13:40:41.676Z,102143.00
2019-02-22T13:43:14.594Z,102147.00
2019-02-22T13:45:47.441Z,102151.00
2019-02-22T13:48:20.340Z,102156.00
2019-02-22T13:50:53.218Z,102157.00
2019-02-22T13:53:27.207Z,102152.00
2019-02-22T13:56:00.190Z,102151.00
2019-02-22T13:58:33.028Z,102151.00
2019-02-22T14:01:05.869Z,102152.00
2019-02-22T14:03:38.755Z,102158.00
2019-02-22T14:06:11.609Z,102155.00
2019-02-22T14:08:44.477Z,102155.00
2019-02-22T14:11:17.338Z,102156.00
2019-02-22T14:13:50.186Z,102163.00
2019-02-22T14:16:23.080Z,102160.00
2019-02-22T14:18:55.938Z,102165.00
2019-02-22T14:21:28.945Z,102165.00
2019-02-22T14:24:01.858Z,102174.00
2019-02-22T14:26:34.760Z,102178.00
2019-02-22T14:29:07.659Z,102166.00
2019-02-22T14:31:40.538Z,102176.00
2019-02-22T14:34:13.415Z,102175.00
2019-02-22T14:36:46.258Z,102171.00
2019-02-22T14:39:19.134Z,102178.00
2019-02-22T14:41:52.117Z,102173.00
2019-02-22T14:44:24.967Z,102177.00
2019-02-22T14:46:57.812Z,102177.00
2019-02-22T14:49:30.664Z,102178.00
2019-02-22T14:52:03.517Z,102182.00
2019-02-22T14:54:36.549Z,102179.00
2019-02-22T14:57:09.391Z,102174.00
2019-02-22T14:59:42.259Z,102175.00
2019-02-22T15:02:15.081Z,102176.00
2019-02-22T15:04:47.968Z,102189.00
2019-02-22T15:07:20.883Z,102181.00
2019-02-22T15:09:53.761Z,102180.00
2019-02-22T15:12:26.608Z,102191.00
2019-02-22T15:15:00.845Z,102193.00
2019-02-22T15:17:38.388Z,102194.00
2019-02-22T15:20:11.264Z,102191.00
2019-02-22T15:22:44.175Z,102199.00
2019-02-22T15:25:17.124Z,102200.00
2019-02-22T15:27:51.778Z,102203.00
2019-02-22T15:30:24.780Z,102207.00
2019-02-22T15:32:57.799Z,102218.00
2019-02-22T15:35:30.648Z,102211.00
2019-02-22T15:38:03.529Z,102216.00
2019-02-22T15:40:39.393Z,102208.00
2019-02-22T15:43:12.236Z,102216.00
2019-02-22T15:45:47.040Z,102204.00
2019-02-22T15:48:19.869Z,102200.00
2019-02-22T15:50:52.718Z,102195.00
2019-02-22T15:53:25.582Z,102189.00
2019-02-22T15:55:58.485Z,102188.00
2019-02-22T15:58:31.323Z,102184.00
2019-02-22T16:01:05.261Z,102179.00
2019-02-22T16:03:56.496Z,102176.00
2019-02-22T16:06:29.436Z,102176.00
2019-02-22T16:09:04.013Z,102167.00
2019-02-22T16:11:38.860Z,102160.00
2019-02-22T16:14:11.735Z,102160.00
2019-02-22T16:16:44.618Z,102166.00
2019-02-22T16:19:17.585Z,102178.00
2019-02-22T16:21:50.474Z,102178.00
2019-02-22T16:24:23.355Z,102170.00
2019-02-22T16:27:02.247Z,102171.00
2019-02-22T16:29:35.099Z,102179.00
2019-02-22T16:32:08.951Z,102174.00
2019-02-22T16:34:43.799Z,102184.00
2019-02-22T16:37:16.700Z,102177.00
2019-02-22T16:39:52.304Z,102183.00
2019-02-22T16:42:24.323Z,102182.00
2019-02-22T16:44:57.142Z,102181.00
2019-02-22T16:47:39.499Z,102189.00
2019-02-22T16:50:06.693Z,102186.00
2019-02-22T16:52:39.661Z,102175.00
2019-02-22T16:55:13.401Z,102177.00
2019-02-22T16:57:46.430Z,102177.00
2019-02-22T17:00:19.419Z,102183.00
2019-02-22T17:02:52.589Z,102190.00
2019-02-22T17:05:25.494Z,102181.00
2019-02-22T17:08:00.808Z,102186.00
2019-02-22T17:10:33.676Z,102186.00
2019-02-22T17:13:06.480Z,102186.00
2019-02-22T17:15:39.370Z,102187.00
2019-02-22T17:18:12.238Z,102185.00
2019-02-22T17:20:45.069Z,102194.00
2019-02-22T17:23:17.955Z,102189.00
2019-02-22T17:25:50.834Z,102188.00
2019-02-22T17:28:23.685Z,102190.00
2019-02-22T17:30:56.554Z,102186.00
2019-02-22T17:33:29.484Z,102197.00
2019-02-22T17:36:02.789Z,102191.00
2019-02-22T17:38:35.639Z,102195.00
2019-02-22T17:41:09.635Z,102203.00
2019-02-22T17:43:42.467Z,102207.00
2019-02-22T17:46:15.366Z,102212.00
2019-02-22T17:48:48.151Z,102207.00
2019-02-22T17:51:21.024Z,102210.00
2019-02-22T17:53:54.919Z,102200.00
2019-02-22T17:56:27.750Z,102205.00
2019-02-22T17:59:00.608Z,102202.00
2019-02-22T18:01:33.429Z,102205.00
2019-02-22T18:04:06.243Z,102214.00
2019-02-22T18:06:39.128Z,102211.00
2019-02-22T18:09:11.945Z,102213.00
2019-02-22T18:11:44.809Z,102219.00
2019-02-22T18:14:17.572Z,102237.00
2019-02-22T18:16:50.339Z,102227.00
2019-02-22T18:19:23.132Z,102238.00
2019-02-22T18:21:55.895Z,102239.00
2019-02-22T18:24:28.657Z,102246.00
2019-02-22T18:27:01.459Z,102236.00
2019-02-22T18:29:35.621Z,102244.00
2019-02-22T18:32:08.554Z,102244.00
2019-02-22T18:34:41.321Z,102243.00
2019-02-22T18:37:14.233Z,102235.00
2019-02-22T18:39:47.028Z,102242.00
2019-02-22T18:42:19.945Z,102249.00
2019-02-22T18:44:52.717Z,102240.00
2019-02-22T18:47:25.488Z,102242.00
2019-02-22T18:49:58.262Z,102255.00
2019-02-22T18:52:31.068Z,102251.00
2019-02-22T18:55:04.070Z,102261.00
2019-02-22T18:57:37.036Z,102260.00
2019-02-22T19:00:12.755Z,102262.00
2019-02-22T19:02:45.557Z,102262.00
2019-02-22T19:05:18.270Z,102255.00
2019-02-22T19:07:51.109Z,102260.00
2019-02-22T19:10:23.928Z,102257.00
2019-02-22T19:12:56.786Z,102263.00
2019-02-22T19:15:29.524Z,102259.00
2019-02-22T19:18:02.323Z,102263.00
2019-02-22T19:20:35.036Z,102269.00
2019-02-22T19:23:07.894Z,102274.00
2019-02-22T19:25:40.675Z,102272.00
2019-02-22T19:28:13.520Z,102274.00
2019-02-22T19:30:46.427Z,102281.00
2019-02-22T19:33:19.316Z,102281.00
2019-02-22T19:35:52.083Z,102293.00
2019-02-22T19:38:25.040Z,102283.00
2019-02-22T19:40:57.853Z,102282.00
2019-02-22T19:43:30.669Z,102282.00
2019-02-22T19:46:03.410Z,102289.00
2019-02-22T19:48:36.239Z,102294.00
2019-02-22T19:51:08.994Z,102304.00
2019-02-22T19:53:41.793Z,102291.00
2019-02-22T19:56:14.539Z,102302.00
2019-02-22T19:58:47.353Z,102300.00
2019-02-22T20:01:20.156Z,102297.00
2019-02-22T20:03:52.896Z,102298.00
2019-02-22T20:06:25.717Z,102294.00
2019-02-22T20:08:58.515Z,102297.00
2019-02-22T20:11:31.827Z,102297.00
2019-02-22T20:14:04.618Z,102308.00
2019-02-22T20:16:37.428Z,102308.00
2019-02-22T20:19:10.366Z,102307.00
2019-02-22T20:21:43.278Z,102309.00
2019-02-22T20:24:16.131Z,102309.00
2019-02-22T20:26:48.910Z,102305.00
2019-02-22T20:29:21.908Z,102309.00
2019-02-22T20:31:54.894Z,102317.00
2019-02-22T20:34:27.719Z,102316.00
2019-02-22T20:37:00.712Z,102311.00
2019-02-22T20:39:33.698Z,102319.00
2019-02-22T20:42:06.515Z,102320.00
2019-02-22T20:44:39.384Z,102321.00
2019-02-22T20:47:12.300Z,102322.00
2019-02-22T20:49:45.199Z,102332.00
2019-02-22T20:52:18.138Z,102330.00
2019-02-22T20:54:51.008Z,102332.00
2019-02-22T20:57:23.875Z,102335.00
2019-02-22T20:59:57.819Z,102341.00
2019-02-22T21:02:30.704Z,102352.00
2019-02-22T21:05:04.077Z,102348.00
2019-02-22T21:07:36.982Z,102344.00
2019-02-22T21:10:12.826Z,102338.00
2019-02-22T21:12:45.669Z,102345.00
2019-02-22T21:15:18.489Z,102347.00
2019-02-22T21:17:51.332Z,102334.00
2019-02-22T21:20:24.355Z,102339.00
2019-02-22T21:22:57.189Z,102338.00
2019-02-22T21:25:30.086Z,102348.00
2019-02-22T21:28:02.895Z,102343.00
2019-02-22T21:30:35.686Z,102352.00
2019-02-22T21:33:08.561Z,102352.00
2019-02-22T21:35:41.271Z,102348.00
2019-02-22T21:38:14.141Z,102340.00
2019-02-22T21:40:47.205Z,102332.00
2019-02-22T21:43:20.104Z,102338.00
2019-02-22T21:45:52.975Z,102337.00
2019-02-22T21:48:27.730Z,102339.00
2019-02-22T21:51:00.589Z,102340.00
2019-02-22T21:53:33.570Z,102340.00
2019-02-22T21:56:08.614Z,102337.00
2019-02-22T21:58:41.484Z,102344.00
2019-02-22T22:01:14.433Z,102346.00
2019-02-22T22:03:47.284Z,102350.00
2019-02-22T22:06:20.098Z,102344.00
2019-02-22T22:08:55.436Z,102346.00
2019-02-22T22:11:27.773Z,102346.00
2019-02-22T22:14:00.653Z,102326.00
2019-02-22T22:16:33.453Z,102346.00
2019-02-22T22:19:06.342Z,102349.00
2019-02-22T22:21:39.251Z,102342.00
2019-02-22T22:24:12.129Z,102338.00
2019-02-22T22:26:44.977Z,102335.00
2019-02-22T22:29:17.797Z,102327.00
2019-02-22T22:31:50.628Z,102338.00
2019-02-22T22:34:23.524Z,102340.00
2019-02-22T22:36:56.375Z,102342.00
2019-02-22T22:39:29.224Z,102350.00
2019-02-22T22:42:02.060Z,102353.00
2019-02-22T22:44:34.934Z,102359.00
2019-02-22T22:47:07.859Z,102362.00
2019-02-22T22:49:40.749Z,102370.00
2019-02-22T22:52:13.615Z,102361.00
2019-02-22T22:54:46.476Z,102365.00
2019-02-22T22:57:19.342Z,102364.00
2019-02-22T22:59:52.176Z,102362.00
2019-02-22T23:02:25.273Z,102366.00
2019-02-22T23:04:58.199Z,102373.00
2019-02-22T23:07:31.013Z,102376.00
2019-02-22T23:10:05.906Z,102383.00
2019-02-22T23:12:39.944Z,102381.00
2019-02-22T23:15:12.782Z,102368.00
2019-02-22T23:17:45.719Z,102377.00
2019-02-22T23:20:18.568Z,102389.00
2019-02-22T23:22:52.304Z,102395.00
2019-02-22T23:25:25.145Z,102400.00
2019-02-22T23:27:57.997Z,102411.00
2019-02-22T23:30:30.935Z,102410.00
2019-02-22T23:33:03.731Z,102418.00
2019-02-22T23:35:36.601Z,102422.00
2019-02-22T23:38:09.430Z,102423.00
2019-02-22T23:40:42.231Z,102429.00
2019-02-22T23:43:15.125Z,102426.00
2019-02-22T23:45:47.999Z,102433.00
2019-02-22T23:48:20.830Z,102426.00
2019-02-22T23:50:53.663Z,102429.00
2019-02-22T23:53:26.483Z,102431.00
2019-02-22T23:55:59.221Z,102438.00
2019-02-22T23:58:32.008Z,102439.00
